Time;durP1;ratioP1;P1;durP2;ratioP2;P2;SDS_P1;SDS_P2;PMS_P1;PMS_P2;Temp;Humidity;BMP_temperature;BMP_pressure;BME280_temperature;BME280_humidity;BME280_pressure;Samples;Min_cycle;Max_cycle;Signal;HPM_P1;HPM_P2
2021/11/17 02:25:51;;;;;;;;;;;;;;;;;;2075076;28;20524;-49
2021/11/17 02:26:51;;;;;;;;;;;;;;;;;;2081300;28;19932;-48
2021/11/17 02:27:53;;;;;;;;;;;;;;;;;;2080248;28;20059;-47
2021/11/17 02:28:55;;;;;;;;;;;;;;;;;;2075069;28;19925;-49
2021/11/17 02:29:56;;;;;;;;;;;;;;;;;;2081491;28;20499;-48
2021/11/17 02:30:56;;;;;;;;;;;;;;;;;;2078939;28;19925;-49
2021/11/17 02:31:57;;;;;;;;;;;;;;;;;;2077070;28;19960;-48
2021/11/17 02:33:07;;;;;;;;;;;;;;;;;;2081426;28;20417;-48
2021/11/17 02:34:09;;;;;;;;;;;;;;;;;;2077008;28;20004;-48
2021/11/17 02:35:10;;;;;;;;;;;;;;;;;;2076895;28;20453;-49
2021/11/17 02:36:11;;;;;;;;;;;;;;;;;;2081564;28;19929;-48
2021/11/17 02:37:12;;;;;;;;;;;;;;;;;;2075998;28;19952;-47
2021/11/17 02:38:13;;;;;;;;;;;;;;;;;;2079658;28;19925;-48
2021/11/17 02:39:30;;;;;;;;;;;;;;;;;;2081487;28;19936;-48
2021/11/17 02:40:31;;;;;;;;;;;;;;;;;;2074325;28;19926;-47
2021/11/17 02:41:32;;;;;;;;;;;;;;;;;;2081330;28;20318;-47
2021/11/17 02:42:33;;;;;;;;;;;;;;;;;;2081272;28;19925;-48
2021/11/17 02:43:34;;;;;;;;;;;;;;;;;;2074388;28;19964;-48
2021/11/17 02:44:35;;;;;;;;;;;;;;;;;;2081479;28;19968;-48
2021/11/17 02:45:36;;;;;;;;;;;;;;;;;;2080872;28;19971;-49
2021/11/17 02:46:36;;;;;;;;;;;;;;;;;;2074464;28;19925;-48
2021/11/17 02:47:37;;;;;;;;;;;;;;;;;;2073099;28;19925;-48
2021/11/17 02:48:38;;;;;;;;;;;;;;;;;;2072676;28;20375;-49
2021/11/17 02:49:39;;;;;;;;;;;;;;;;;;2074465;28;19952;-48
2021/11/17 02:50:40;;;;;;;;;;;;;;;;;;2073135;28;19980;-48
2021/11/17 02:51:40;;;;;;;;;;;;;;;;;;2072854;28;19925;-48
2021/11/17 02:52:41;;;;;;;;;;;;;;;;;;2077172;28;19933;-48
2021/11/17 02:53:42;;;;;;;;;;;;;;;;;;2082730;28;20294;-48
2021/11/17 02:54:43;;;;;;;;;;;;;;;;;;2079752;28;19925;-48
2021/11/17 02:55:44;;;;;;;;;;;;;;;;;;2077910;28;19940;-48
2021/11/17 02:56:44;;;;;;;;;;;;;;;;;;2082774;28;19925;-49
2021/11/17 02:57:45;;;;;;;;;;;;;;;;;;2078148;28;19925;-50
2021/11/17 02:58:46;;;;;;;;;;;;;;;;;;2079152;28;19932;-48
2021/11/17 02:59:47;;;;;;;;;;;;;;;;;;2082789;28;19964;-48
2021/11/17 03:00:48;;;;;;;;;;;;;;;;;;2078443;28;19925;-48
2021/11/17 03:01:49;;;;;;;;;;;;;;;;;;2079994;28;19933;-48
2021/11/17 03:02:50;;;;;;;;;;;;;;;;;;2080258;28;19925;-49
2021/11/17 03:03:51;;;;;;;;;;;;;;;;;;2069200;28;20378;-49
2021/11/17 03:04:52;;;;;;;;;;;;;;;;;;2080642;28;19925;-50
2021/11/17 03:05:53;;;;;;;;;;;;;;;;;;2083071;28;19925;-42
2021/11/17 03:06:54;;;;;;;;;;;;;;;;;;2077178;28;19926;-43
2021/11/17 03:07:55;;;;;;;;;;;;;;;;;;2081112;28;19925;-42
2021/11/17 03:08:55;;;;;;;;;;;;;;;;;;2082730;28;19925;-43
2021/11/17 03:09:56;;;;;;;;;;;;;;;;;;2076363;28;19926;-43
2021/11/17 03:10:57;;;;;;;;;;;;;;;;;;2078386;28;19925;-43
2021/11/17 03:11:58;;;;;;;;;;;;;;;;;;2074603;28;20387;-43
2021/11/17 03:12:59;;;;;;;;;;;;;;;;;;2075453;28;20362;-42
2021/11/17 03:14:00;;;;;;;;;;;;;;;;;;2074309;28;20425;-42
2021/11/17 03:15:00;;;;;;;;;;;;;;;;;;2074438;28;19925;-42
2021/11/17 03:16:01;;;;;;;;;;;;;;;;;;2073844;28;19933;-42
2021/11/17 03:17:02;;;;;;;;;;;;;;;;;;2082554;28;19932;-42
2021/11/17 03:18:03;;;;;;;;;;;;;;;;;;2082601;28;19925;-42
2021/11/17 03:19:03;;;;;;;;;;;;;;;;;;2076512;28;19925;-42
2021/11/17 03:20:04;;;;;;;;;;;;;;;;;;2074442;28;19937;-42
2021/11/17 03:21:05;;;;;;;;;;;;;;;;;;2074402;28;19926;-43
2021/11/17 03:22:06;;;;;;;;;;;;;;;;;;2074553;28;19933;-42
2021/11/17 03:23:07;;;;;;;;;;;;;;;;;;2082559;28;19925;-42
2021/11/17 03:24:08;;;;;;;;;;;;;;;;;;2082665;28;19940;-42
2021/11/17 03:25:09;;;;;;;;;;;;;;;;;;2075664;28;20403;-42
2021/11/17 03:26:10;;;;;;;;;;;;;;;;;;2082579;28;20018;-43
2021/11/17 03:27:10;;;;;;;;;;;;;;;;;;2081493;28;19929;-42
2021/11/17 03:28:11;;;;;;;;;;;;;;;;;;2076548;28;19929;-42
2021/11/17 03:29:12;;;;;;;;;;;;;;;;;;2082509;28;19929;-43
2021/11/17 03:30:13;;;;;;;;;;;;;;;;;;2081003;28;19925;-43
2021/11/17 03:31:14;;;;;;;;;;;;;;;;;;2075988;28;19929;-42
2021/11/17 03:32:15;;;;;;;;;;;;;;;;;;2082612;28;20374;-42
2021/11/17 03:33:15;;;;;;;;;;;;;;;;;;2079855;28;20378;-42
2021/11/17 03:34:16;;;;;;;;;;;;;;;;;;2078181;28;19925;-43
2021/11/17 03:35:17;;;;;;;;;;;;;;;;;;2082649;28;20370;-42
2021/11/17 03:36:18;;;;;;;;;;;;;;;;;;2078665;28;19925;-42
2021/11/17 03:37:19;;;;;;;;;;;;;;;;;;2079588;28;19929;-42
2021/11/17 03:38:20;;;;;;;;;;;;;;;;;;2082534;28;19925;-43
2021/11/17 03:39:20;;;;;;;;;;;;;;;;;;2078219;28;20287;-43
2021/11/17 03:40:21;;;;;;;;;;;;;;;;;;2076441;28;20306;-43
2021/11/17 03:41:22;;;;;;;;;;;;;;;;;;2074322;28;19930;-43
2021/11/17 03:42:23;;;;;;;;;;;;;;;;;;2072052;28;19932;-42
2021/11/17 03:43:24;;;;;;;;;;;;;;;;;;2080069;28;20019;-42
2021/11/17 03:44:25;;;;;;;;;;;;;;;;;;2082478;28;19932;-43
2021/11/17 03:45:26;;;;;;;;;;;;;;;;;;2077817;28;19934;-43
2021/11/17 03:46:26;;;;;;;;;;;;;;;;;;2075466;28;19933;-42
2021/11/17 03:47:27;;;;;;;;;;;;;;;;;;2074228;28;20419;-42
2021/11/17 03:48:28;;;;;;;;;;;;;;;;;;2074493;28;19930;-42
2021/11/17 03:49:29;;;;;;;;;;;;;;;;;;2074808;28;19930;-43
2021/11/17 03:50:30;;;;;;;;;;;;;;;;;;2074278;28;19933;-43
2021/11/17 03:51:31;;;;;;;;;;;;;;;;;;2073103;28;20354;-42
2021/11/17 03:52:31;;;;;;;;;;;;;;;;;;2081748;28;19932;-43
2021/11/17 03:53:32;;;;;;;;;;;;;;;;;;2082372;28;19925;-43
2021/11/17 03:54:33;;;;;;;;;;;;;;;;;;2077324;28;19932;-42
2021/11/17 03:55:34;;;;;;;;;;;;;;;;;;2074167;28;19926;-42
2021/11/17 03:56:35;;;;;;;;;;;;;;;;;;2074313;28;19926;-42
2021/11/17 03:57:36;;;;;;;;;;;;;;;;;;2073213;28;19925;-42
2021/11/17 03:58:36;;;;;;;;;;;;;;;;;;2082125;28;19925;-43
2021/11/17 03:59:37;;;;;;;;;;;;;;;;;;2082369;28;20012;-42
2021/11/17 04:00:38;;;;;;;;;;;;;;;;;;2075952;28;19979;-42
2021/11/17 04:01:39;;;;;;;;;;;;;;;;;;2074292;28;19930;-42
2021/11/17 04:02:40;;;;;;;;;;;;;;;;;;2074188;28;19933;-43
2021/11/17 04:03:41;;;;;;;;;;;;;;;;;;2073586;28;19925;-42
2021/11/17 04:04:42;;;;;;;;;;;;;;;;;;2074218;28;20302;-42
2021/11/17 04:05:46;;;;;;;;;;;;;;;;;;2073683;28;20035;-42
2021/11/17 04:06:46;;;;;;;;;;;;;;;;;;2076502;28;19925;-42
2021/11/17 04:07:47;;;;;;;;;;;;;;;;;;2081942;28;20390;-42
2021/11/17 04:08:48;;;;;;;;;;;;;;;;;;2080752;28;19975;-42
2021/11/17 04:09:49;;;;;;;;;;;;;;;;;;2076863;28;19929;-42
2021/11/17 04:10:50;;;;;;;;;;;;;;;;;;2082278;28;19932;-43
2021/11/17 04:11:51;;;;;;;;;;;;;;;;;;2079338;28;19925;-42
2021/11/17 04:12:52;;;;;;;;;;;;;;;;;;2076252;28;19932;-42
2021/11/17 04:13:53;;;;;;;;;;;;;;;;;;2074013;28;20283;-42
2021/11/17 04:14:53;;;;;;;;;;;;;;;;;;2072139;28;19932;-43
2021/11/17 04:15:54;;;;;;;;;;;;;;;;;;2075847;28;19932;-42
2021/11/17 04:16:55;;;;;;;;;;;;;;;;;;2074017;28;20432;-42
2021/11/17 04:17:56;;;;;;;;;;;;;;;;;;2072681;28;19933;-43
2021/11/17 04:18:57;;;;;;;;;;;;;;;;;;2079542;28;19964;-42
2021/11/17 04:19:58;;;;;;;;;;;;;;;;;;2082226;28;19926;-43
2021/11/17 04:20:58;;;;;;;;;;;;;;;;;;2076617;28;20386;-42
2021/11/17 04:22:00;;;;;;;;;;;;;;;;;;2073970;28;20361;-43
2021/11/17 04:23:00;;;;;;;;;;;;;;;;;;2074070;28;20016;-42
2021/11/17 04:24:01;;;;;;;;;;;;;;;;;;2073095;28;19976;-43
2021/11/17 04:25:05;;;;;;;;;;;;;;;;;;2081246;28;19933;-42
2021/11/17 04:26:06;;;;;;;;;;;;;;;;;;2082314;28;20294;-42
2021/11/17 04:27:06;;;;;;;;;;;;;;;;;;2076336;28;19932;-42
2021/11/17 04:28:07;;;;;;;;;;;;;;;;;;2074215;28;19926;-43
2021/11/17 04:29:08;;;;;;;;;;;;;;;;;;2074126;28;20294;-42
2021/11/17 04:30:09;;;;;;;;;;;;;;;;;;2074874;28;19925;-43
2021/11/17 04:31:10;;;;;;;;;;;;;;;;;;2074007;28;19929;-43
2021/11/17 04:32:11;;;;;;;;;;;;;;;;;;2073910;28;19926;-43
2021/11/17 04:33:11;;;;;;;;;;;;;;;;;;2073704;28;19969;-42
2021/11/17 04:34:12;;;;;;;;;;;;;;;;;;2081999;28;19929;-43
2021/11/17 04:35:13;;;;;;;;;;;;;;;;;;2082138;28;19925;-42
2021/11/17 04:36:14;;;;;;;;;;;;;;;;;;2074844;28;19936;-43
2021/11/17 04:37:15;;;;;;;;;;;;;;;;;;2074079;28;19925;-42
2021/11/17 04:38:16;;;;;;;;;;;;;;;;;;2073829;28;20211;-42
2021/11/17 04:39:16;;;;;;;;;;;;;;;;;;2074614;28;19929;-42
2021/11/17 04:40:17;;;;;;;;;;;;;;;;;;2073946;28;19925;-42
2021/11/17 04:41:18;;;;;;;;;;;;;;;;;;2073368;28;19925;-42
2021/11/17 04:42:19;;;;;;;;;;;;;;;;;;2075566;28;19929;-43
2021/11/17 04:43:20;;;;;;;;;;;;;;;;;;2082105;28;20031;-43
2021/11/17 04:44:21;;;;;;;;;;;;;;;;;;2080983;28;19972;-43
2021/11/17 04:45:21;;;;;;;;;;;;;;;;;;2075204;28;19925;-42
2021/11/17 04:46:22;;;;;;;;;;;;;;;;;;2073832;28;19961;-43
2021/11/17 04:47:23;;;;;;;;;;;;;;;;;;2073373;28;20371;-42
2021/11/17 04:48:24;;;;;;;;;;;;;;;;;;2077021;28;19933;-43
2021/11/17 04:49:25;;;;;;;;;;;;;;;;;;2082140;28;19971;-43
2021/11/17 04:50:26;;;;;;;;;;;;;;;;;;2078945;28;19929;-43
2021/11/17 04:51:26;;;;;;;;;;;;;;;;;;2077347;28;20225;-42
2021/11/17 04:52:27;;;;;;;;;;;;;;;;;;2081857;28;19929;-42
2021/11/17 04:53:28;;;;;;;;;;;;;;;;;;2077703;28;19925;-43
2021/11/17 04:54:29;;;;;;;;;;;;;;;;;;2079350;28;19929;-42
2021/11/17 04:55:29;;;;;;;;;;;;;;;;;;2082128;28;20286;-43
2021/11/17 04:56:30;;;;;;;;;;;;;;;;;;2077471;28;19926;-42
2021/11/17 04:57:32;;;;;;;;;;;;;;;;;;2075742;28;19925;-43
2021/11/17 04:58:33;;;;;;;;;;;;;;;;;;2073838;28;19955;-42
2021/11/17 04:59:33;;;;;;;;;;;;;;;;;;2071716;28;19980;-42
2021/11/17 05:00:35;;;;;;;;;;;;;;;;;;2078211;28;19925;-43
2021/11/17 05:01:36;;;;;;;;;;;;;;;;;;2081941;28;19936;-42
2021/11/17 05:02:37;;;;;;;;;;;;;;;;;;2076417;28;19988;-42
2021/11/17 05:03:37;;;;;;;;;;;;;;;;;;2072295;28;19988;-42
2021/11/17 05:04:38;;;;;;;;;;;;;;;;;;2073837;28;19940;-42
2021/11/17 05:05:39;;;;;;;;;;;;;;;;;;2073164;28;20287;-42
2021/11/17 05:06:40;;;;;;;;;;;;;;;;;;2074057;28;19925;-42
2021/11/17 05:07:41;;;;;;;;;;;;;;;;;;2073759;28;19932;-43
2021/11/17 05:08:42;;;;;;;;;;;;;;;;;;2074603;28;19995;-43
2021/11/17 05:09:43;;;;;;;;;;;;;;;;;;2073606;28;19931;-43
2021/11/17 05:10:44;;;;;;;;;;;;;;;;;;2073702;28;19956;-43
2021/11/17 05:11:44;;;;;;;;;;;;;;;;;;2072230;28;19933;-42
2021/11/17 05:12:45;;;;;;;;;;;;;;;;;;2081599;28;19932;-42
2021/11/17 05:13:47;;;;;;;;;;;;;;;;;;2081830;28;19956;-43
2021/11/17 05:14:48;;;;;;;;;;;;;;;;;;2073408;28;20016;-42
2021/11/17 05:15:48;;;;;;;;;;;;;;;;;;2081523;28;19931;-43
2021/11/17 05:16:49;;;;;;;;;;;;;;;;;;2081764;28;19936;-43
2021/11/17 05:17:50;;;;;;;;;;;;;;;;;;2073516;28;20148;-42
2021/11/17 05:18:51;;;;;;;;;;;;;;;;;;2082079;28;19940;-43
2021/11/17 05:19:52;;;;;;;;;;;;;;;;;;2081445;28;19925;-43
2021/11/17 05:20:53;;;;;;;;;;;;;;;;;;2073159;28;20004;-41
2021/11/17 05:21:53;;;;;;;;;;;;;;;;;;2081672;28;20374;-42
2021/11/17 05:22:55;;;;;;;;;;;;;;;;;;2080683;28;19952;-42
2021/11/17 05:23:55;;;;;;;;;;;;;;;;;;2075016;28;19975;-42
2021/11/17 05:24:56;;;;;;;;;;;;;;;;;;2082030;28;19925;-48
2021/11/17 05:25:57;;;;;;;;;;;;;;;;;;2079915;28;19926;-49
2021/11/17 05:26:58;;;;;;;;;;;;;;;;;;2075674;28;19987;-51
2021/11/17 05:27:59;;;;;;;;;;;;;;;;;;2081802;28;19929;-48
2021/11/17 05:29:00;;;;;;;;;;;;;;;;;;2078848;28;19929;-48
2021/11/17 05:30:00;;;;;;;;;;;;;;;;;;2075751;28;20424;-47
2021/11/17 05:31:01;;;;;;;;;;;;;;;;;;2073775;28;20314;-48
2021/11/17 05:32:02;;;;;;;;;;;;;;;;;;2071711;28;19929;-50
2021/11/17 05:33:03;;;;;;;;;;;;;;;;;;2078998;28;20030;-48
2021/11/17 05:34:03;;;;;;;;;;;;;;;;;;2081861;28;19947;-48
2021/11/17 05:35:04;;;;;;;;;;;;;;;;;;2077147;28;20329;-48
2021/11/17 05:36:05;;;;;;;;;;;;;;;;;;2079076;28;19971;-48
2021/11/17 05:37:06;;;;;;;;;;;;;;;;;;2081658;28;19933;-48
2021/11/17 05:38:07;;;;;;;;;;;;;;;;;;2077053;28;20391;-48
2021/11/17 05:39:08;;;;;;;;;;;;;;;;;;2079478;28;19925;-49
2021/11/17 05:40:08;;;;;;;;;;;;;;;;;;2081742;28;20294;-49
2021/11/17 05:41:09;;;;;;;;;;;;;;;;;;2076633;28;19930;-47
2021/11/17 05:42:10;;;;;;;;;;;;;;;;;;2079835;28;19929;-48
2021/11/17 05:43:11;;;;;;;;;;;;;;;;;;2081785;28;19932;-48
2021/11/17 05:44:12;;;;;;;;;;;;;;;;;;2074462;28;20414;-50
2021/11/17 05:45:13;;;;;;;;;;;;;;;;;;2080820;28;19926;-48
2021/11/17 05:46:14;;;;;;;;;;;;;;;;;;2081697;28;20031;-48
2021/11/17 05:47:15;;;;;;;;;;;;;;;;;;2074982;28;19928;-48
2021/11/17 05:48:15;;;;;;;;;;;;;;;;;;2081362;28;19925;-48
2021/11/17 05:49:16;;;;;;;;;;;;;;;;;;2081792;28;19929;-49
2021/11/17 05:50:17;;;;;;;;;;;;;;;;;;2074726;28;20362;-50
2021/11/17 05:51:18;;;;;;;;;;;;;;;;;;2081559;28;19925;-48
2021/11/17 05:52:18;;;;;;;;;;;;;;;;;;2081728;28;19925;-48
2021/11/17 05:53:19;;;;;;;;;;;;;;;;;;2075644;28;19983;-49
2021/11/17 05:54:20;;;;;;;;;;;;;;;;;;2065373;28;20383;-48
2021/11/17 05:55:21;;;;;;;;;;;;;;;;;;2065356;28;19957;-47
2021/11/17 05:56:25;;;;;;;;;;;;;;;;;;2072455;28;19933;-48
2021/11/17 05:57:27;;;;;;;;;;;;;;;;;;2073380;28;20367;-47
2021/11/17 05:58:27;;;;;;;;;;;;;;;;;;2072986;28;20055;-48
2021/11/17 05:59:28;;;;;;;;;;;;;;;;;;2074332;28;19937;-48
2021/11/17 06:00:29;;;;;;;;;;;;;;;;;;2073450;28;19934;-50
2021/11/17 06:01:31;;;;;;;;;;;;;;;;;;2073031;28;20011;-49
2021/11/17 06:02:32;;;;;;;;;;;;;;;;;;2074542;28;19925;-47
2021/11/17 06:03:33;;;;;;;;;;;;;;;;;;2065655;28;20335;-48
2021/11/17 06:04:34;;;;;;;;;;;;;;;;;;2065970;28;19925;-48
2021/11/17 06:05:34;;;;;;;;;;;;;;;;;;2077335;28;19925;-48
2021/11/17 06:06:36;;;;;;;;;;;;;;;;;;2081637;28;20383;-51
2021/11/17 06:07:37;;;;;;;;;;;;;;;;;;2077687;28;20011;-48
2021/11/17 06:08:38;;;;;;;;;;;;;;;;;;2078475;28;19925;-51
2021/11/17 06:09:39;;;;;;;;;;;;;;;;;;2081538;28;20413;-49
2021/11/17 06:10:39;;;;;;;;;;;;;;;;;;2077176;28;19925;-48
2021/11/17 06:11:40;;;;;;;;;;;;;;;;;;2078968;28;20286;-49
2021/11/17 06:12:41;;;;;;;;;;;;;;;;;;2081558;28;19983;-47
2021/11/17 06:13:42;;;;;;;;;;;;;;;;;;2075843;28;20268;-51
2021/11/17 06:14:43;;;;;;;;;;;;;;;;;;2078148;28;19925;-47
2021/11/17 06:15:44;;;;;;;;;;;;;;;;;;2081497;28;19932;-48
2021/11/17 06:16:45;;;;;;;;;;;;;;;;;;2075209;28;19934;-48
2021/11/17 06:17:45;;;;;;;;;;;;;;;;;;2079629;28;19932;-47
2021/11/17 06:18:48;;;;;;;;;;;;;;;;;;2081606;28;19925;-48
2021/11/17 06:19:48;;;;;;;;;;;;;;;;;;2075408;28;20120;-47
2021/11/17 06:20:49;;;;;;;;;;;;;;;;;;2080602;28;19929;-48
2021/11/17 06:21:50;;;;;;;;;;;;;;;;;;2081540;28;19932;-47
2021/11/17 06:22:52;;;;;;;;;;;;;;;;;;2076814;28;19980;-47
2021/11/17 06:23:53;;;;;;;;;;;;;;;;;;2066131;28;19971;-50
2021/11/17 06:24:54;;;;;;;;;;;;;;;;;;2065274;28;20021;-48
2021/11/17 06:25:54;;;;;;;;;;;;;;;;;;2071537;28;19963;-48
2021/11/17 06:26:55;;;;;;;;;;;;;;;;;;2072360;28;20290;-47
2021/11/17 06:27:56;;;;;;;;;;;;;;;;;;2073190;28;20290;-48
2021/11/17 06:28:57;;;;;;;;;;;;;;;;;;2071927;28;20434;-48
2021/11/17 06:29:58;;;;;;;;;;;;;;;;;;2081540;28;19932;-48
2021/11/17 06:30:59;;;;;;;;;;;;;;;;;;2081372;28;20410;-48
2021/11/17 06:32:00;;;;;;;;;;;;;;;;;;2074355;28;19932;-47
2021/11/17 06:33:01;;;;;;;;;;;;;;;;;;2081456;28;19925;-47
2021/11/17 06:34:02;;;;;;;;;;;;;;;;;;2081349;28;19932;-46
2021/11/17 06:35:02;;;;;;;;;;;;;;;;;;2072121;28;19932;-47
2021/11/17 06:36:03;;;;;;;;;;;;;;;;;;2073432;28;19925;-48
2021/11/17 06:37:04;;;;;;;;;;;;;;;;;;2072631;28;19929;-47
2021/11/17 06:38:05;;;;;;;;;;;;;;;;;;2074359;28;19925;-48
2021/11/17 06:39:06;;;;;;;;;;;;;;;;;;2081436;28;19929;-47
2021/11/17 06:40:07;;;;;;;;;;;;;;;;;;2079616;28;20370;-48
2021/11/17 06:41:07;;;;;;;;;;;;;;;;;;2074727;28;19926;-43
2021/11/17 06:42:08;;;;;;;;;;;;;;;;;;2073163;28;19930;-43
2021/11/17 06:43:10;;;;;;;;;;;;;;;;;;2072369;28;19929;-43
2021/11/17 06:44:11;;;;;;;;;;;;;;;;;;2077550;28;20016;-43
2021/11/17 06:45:12;;;;;;;;;;;;;;;;;;2081315;28;19929;-43
2021/11/17 06:46:12;;;;;;;;;;;;;;;;;;2076810;28;20448;-43
2021/11/17 06:47:13;;;;;;;;;;;;;;;;;;2075691;28;19926;-43
2021/11/17 06:48:14;;;;;;;;;;;;;;;;;;2073135;28;19934;-43
2021/11/17 06:49:15;;;;;;;;;;;;;;;;;;2071954;28;19968;-51
2021/11/17 06:50:20;;;;;;;;;;;;;;;;;;2076769;28;19929;-52
2021/11/17 06:51:20;;;;;;;;;;;;;;;;;;2081539;28;19944;-52
2021/11/17 06:52:21;;;;;;;;;;;;;;;;;;2076123;28;20288;-51
2021/11/17 06:53:22;;;;;;;;;;;;;;;;;;2073042;28;19929;-52
2021/11/17 06:54:23;;;;;;;;;;;;;;;;;;2073094;28;19929;-51
2021/11/17 06:55:24;;;;;;;;;;;;;;;;;;2073220;28;19937;-51
2021/11/17 06:56:25;;;;;;;;;;;;;;;;;;2074097;28;19961;-50
2021/11/17 06:57:25;;;;;;;;;;;;;;;;;;2073190;28;19983;-51
2021/11/17 06:58:26;;;;;;;;;;;;;;;;;;2072756;28;19925;-51
2021/11/17 06:59:27;;;;;;;;;;;;;;;;;;2073219;28;19926;-51
2021/11/17 07:00:28;;;;;;;;;;;;;;;;;;2072669;28;19960;-53
2021/11/17 07:01:29;;;;;;;;;;;;;;;;;;2074892;28;19948;-51
2021/11/17 07:02:30;;;;;;;;;;;;;;;;;;2080990;28;20340;-50
2021/11/17 07:03:31;;;;;;;;;;;;;;;;;;2067920;28;20007;-53
2021/11/17 07:04:32;;;;;;;;;;;;;;;;;;2074559;28;20290;-51
2021/11/17 07:05:33;;;;;;;;;;;;;;;;;;2073032;28;20325;-50
2021/11/17 07:06:34;;;;;;;;;;;;;;;;;;2072639;28;19948;-51
2021/11/17 07:07:34;;;;;;;;;;;;;;;;;;2074433;28;20357;-50
2021/11/17 07:08:35;;;;;;;;;;;;;;;;;;2073183;28;19925;-51
2021/11/17 07:09:36;;;;;;;;;;;;;;;;;;2071952;28;19926;-54
2021/11/17 07:10:37;;;;;;;;;;;;;;;;;;2077365;28;19925;-51
2021/11/17 07:11:38;;;;;;;;;;;;;;;;;;2081282;28;19932;-53
2021/11/17 07:12:39;;;;;;;;;;;;;;;;;;2076868;28;20263;-53
2021/11/17 07:13:40;;;;;;;;;;;;;;;;;;2078576;28;19945;-54
2021/11/17 07:14:40;;;;;;;;;;;;;;;;;;2081249;28;19925;-53
2021/11/17 07:15:41;;;;;;;;;;;;;;;;;;2076756;28;19925;-51
2021/11/17 07:16:44;;;;;;;;;;;;;;;;;;2074731;28;20016;-51
2021/11/17 07:17:45;;;;;;;;;;;;;;;;;;2073084;28;19932;-51
2021/11/17 07:18:46;;;;;;;;;;;;;;;;;;2070584;28;19953;-54
2021/11/17 07:19:47;;;;;;;;;;;;;;;;;;2073963;28;20009;-51
2021/11/17 07:20:48;;;;;;;;;;;;;;;;;;2073027;28;20349;-54
2021/11/17 07:21:48;;;;;;;;;;;;;;;;;;2071763;28;19926;-51
2021/11/17 07:22:50;;;;;;;;;;;;;;;;;;2079951;28;19982;-52
2021/11/17 07:23:51;;;;;;;;;;;;;;;;;;2081147;28;19978;-54
2021/11/17 07:24:52;;;;;;;;;;;;;;;;;;2073682;28;19932;-50
2021/11/17 07:25:53;;;;;;;;;;;;;;;;;;2080747;28;20370;-52
2021/11/17 07:26:53;;;;;;;;;;;;;;;;;;2081086;28;19934;-52
2021/11/17 07:27:55;;;;;;;;;;;;;;;;;;2073068;28;19962;-51
2021/11/17 07:28:56;;;;;;;;;;;;;;;;;;2080956;28;20394;-50
2021/11/17 07:29:57;;;;;;;;;;;;;;;;;;2081121;28;19925;-51
2021/11/17 07:30:58;;;;;;;;;;;;;;;;;;2074338;28;19926;-50
2021/11/17 07:31:59;;;;;;;;;;;;;;;;;;2064906;28;20005;-51
2021/11/17 07:33:01;;;;;;;;;;;;;;;;;;2065018;28;19930;-53
2021/11/17 07:34:02;;;;;;;;;;;;;;;;;;2072910;28;19925;-51
2021/11/17 07:35:03;;;;;;;;;;;;;;;;;;2081198;28;20168;-52
2021/11/17 07:36:04;;;;;;;;;;;;;;;;;;2081037;28;19925;-51
2021/11/17 07:37:06;;;;;;;;;;;;;;;;;;2071186;28;19932;-50
2021/11/17 07:38:07;;;;;;;;;;;;;;;;;;2073058;28;19925;-50
2021/11/17 07:39:08;;;;;;;;;;;;;;;;;;2072829;28;19968;-50
2021/11/17 07:40:09;;;;;;;;;;;;;;;;;;2079810;28;19983;-50
2021/11/17 07:41:10;;;;;;;;;;;;;;;;;;2082551;28;19940;-52
2021/11/17 07:42:11;;;;;;;;;;;;;;;;;;2076611;28;20379;-51
2021/11/17 07:43:12;;;;;;;;;;;;;;;;;;2079127;28;20441;-50
2021/11/17 07:44:16;;;;;;;;;;;;;;;;;;2082629;28;19975;-45
2021/11/17 07:45:17;;;;;;;;;;;;;;;;;;2076680;28;20020;-45
2021/11/17 07:46:18;;;;;;;;;;;;;;;;;;2081338;28;19928;-45
2021/11/17 07:47:19;;;;;;;;;;;;;;;;;;2082509;28;19925;-45
2021/11/17 07:48:19;;;;;;;;;;;;;;;;;;2075891;28;19925;-45
2021/11/17 07:49:20;;;;;;;;;;;;;;;;;;2082092;28;19956;-45
2021/11/17 07:50:21;;;;;;;;;;;;;;;;;;2082439;28;19975;-45
2021/11/17 07:51:22;;;;;;;;;;;;;;;;;;2075584;28;19976;-45
2021/11/17 07:52:23;;;;;;;;;;;;;;;;;;2077283;28;19926;-44
2021/11/17 07:53:24;;;;;;;;;;;;;;;;;;2074433;28;19933;-51
2021/11/17 07:54:25;;;;;;;;;;;;;;;;;;2075227;28;20004;-51
2021/11/17 07:55:26;;;;;;;;;;;;;;;;;;2074327;28;19929;-51
2021/11/17 07:56:27;;;;;;;;;;;;;;;;;;2074233;28;20303;-54
2021/11/17 07:57:27;;;;;;;;;;;;;;;;;;2075056;28;20274;-53
2021/11/17 07:58:28;;;;;;;;;;;;;;;;;;2074193;28;19929;-50
2021/11/17 07:59:29;;;;;;;;;;;;;;;;;;2074227;28;19936;-50
2021/11/17 08:00:30;;;;;;;;;;;;;;;;;;2075034;28;20579;-53
2021/11/17 08:01:31;;;;;;;;;;;;;;;;;;2074292;28;19925;-51
2021/11/17 08:02:32;;;;;;;;;;;;;;;;;;2073904;28;20381;-54
2021/11/17 08:03:33;;;;;;;;;;;;;;;;;;2074468;28;19933;-53
2021/11/17 08:04:34;;;;;;;;;;;;;;;;;;2082527;28;20004;-52
2021/11/17 08:05:35;;;;;;;;;;;;;;;;;;2080974;28;20002;-53
2021/11/17 08:06:36;;;;;;;;;;;;;;;;;;2076915;28;20317;-52
2021/11/17 08:07:37;;;;;;;;;;;;;;;;;;2082294;28;19925;-53
2021/11/17 08:08:38;;;;;;;;;;;;;;;;;;2080003;28;19925;-51
2021/11/17 08:09:39;;;;;;;;;;;;;;;;;;2075788;28;19932;-53
2021/11/17 08:10:40;;;;;;;;;;;;;;;;;;2074212;28;20371;-51
2021/11/17 08:11:41;;;;;;;;;;;;;;;;;;2072822;28;20398;-54
2021/11/17 08:12:41;;;;;;;;;;;;;;;;;;2079005;28;19925;-51
2021/11/17 08:13:42;;;;;;;;;;;;;;;;;;2082314;28;20267;-50
2021/11/17 08:14:43;;;;;;;;;;;;;;;;;;2077722;28;19933;-55
2021/11/17 08:15:44;;;;;;;;;;;;;;;;;;2079591;28;19925;-54
2021/11/17 08:16:45;;;;;;;;;;;;;;;;;;2082355;28;20297;-54
2021/11/17 08:17:46;;;;;;;;;;;;;;;;;;2077648;28;20355;-55
2021/11/17 08:18:46;;;;;;;;;;;;;;;;;;2078903;28;19925;-54
2021/11/17 08:19:48;;;;;;;;;;;;;;;;;;2082210;28;19925;-52
2021/11/17 08:20:48;;;;;;;;;;;;;;;;;;2076676;28;20032;-54
2021/11/17 08:21:50;;;;;;;;;;;;;;;;;;2075135;28;19929;-52
2021/11/17 08:22:51;;;;;;;;;;;;;;;;;;2074049;28;19925;-54
2021/11/17 08:23:52;;;;;;;;;;;;;;;;;;2074195;28;19926;-55
2021/11/17 08:24:53;;;;;;;;;;;;;;;;;;2074552;28;19926;-55
2021/11/17 08:25:53;;;;;;;;;;;;;;;;;;2074050;28;19965;-54
2021/11/17 08:26:54;;;;;;;;;;;;;;;;;;2072963;28;20337;-54
2021/11/17 08:27:55;;;;;;;;;;;;;;;;;;2081710;28;19925;-52
2021/11/17 08:28:56;;;;;;;;;;;;;;;;;;2082277;28;19971;-53
2021/11/17 08:29:58;;;;;;;;;;;;;;;;;;2075269;28;19928;-52
2021/11/17 08:30:59;;;;;;;;;;;;;;;;;;2081971;28;20355;-53
2021/11/17 08:32:00;;;;;;;;;;;;;;;;;;2082166;28;19979;-52
2021/11/17 08:33:00;;;;;;;;;;;;;;;;;;2076114;28;19929;-51
2021/11/17 08:34:04;;;;;;;;;;;;;;;;;;2073925;28;19926;-51
2021/11/17 08:35:05;;;;;;;;;;;;;;;;;;2073925;28;19932;-51
2021/11/17 08:36:06;;;;;;;;;;;;;;;;;;2074842;28;19988;-43
2021/11/17 08:37:07;;;;;;;;;;;;;;;;;;2082063;28;19955;-45
2021/11/17 08:38:08;;;;;;;;;;;;;;;;;;2081544;28;19931;-44
2021/11/17 08:39:09;;;;;;;;;;;;;;;;;;2075224;28;19933;-44
2021/11/17 08:40:10;;;;;;;;;;;;;;;;;;2074084;28;19929;-41
2021/11/17 08:41:11;;;;;;;;;;;;;;;;;;2073555;28;19929;-44
2021/11/17 08:42:12;;;;;;;;;;;;;;;;;;2075341;28;19932;-44
2021/11/17 08:43:12;;;;;;;;;;;;;;;;;;2082093;28;19929;-44
2021/11/17 08:44:13;;;;;;;;;;;;;;;;;;2079735;28;19939;-44
2021/11/17 08:45:14;;;;;;;;;;;;;;;;;;2074391;28;19929;-44
2021/11/17 08:46:15;;;;;;;;;;;;;;;;;;2073856;28;19976;-44
2021/11/17 08:47:16;;;;;;;;;;;;;;;;;;2072391;28;19932;-43
2021/11/17 08:48:17;;;;;;;;;;;;;;;;;;2078475;28;20015;-43
2021/11/17 08:49:18;;;;;;;;;;;;;;;;;;2082335;28;19948;-43
2021/11/17 08:50:20;;;;;;;;;;;;;;;;;;2076312;28;19934;-43
2021/11/17 08:51:21;;;;;;;;;;;;;;;;;;2079183;28;20007;-43
2021/11/17 08:52:22;;;;;;;;;;;;;;;;;;2082073;28;19925;-43
2021/11/17 08:53:24;;;;;;;;;;;;;;;;;;2077380;28;20286;-43
2021/11/17 08:54:25;;;;;;;;;;;;;;;;;;2079941;28;20004;-43
2021/11/17 08:55:26;;;;;;;;;;;;;;;;;;2081954;28;20389;-44
2021/11/17 08:56:27;;;;;;;;;;;;;;;;;;2076248;28;19926;-44
2021/11/17 08:57:28;;;;;;;;;;;;;;;;;;2074543;28;19932;-45
2021/11/17 08:58:29;;;;;;;;;;;;;;;;;;2073913;28;19956;-45
2021/11/17 08:59:31;;;;;;;;;;;;;;;;;;2072730;28;19937;-44
2021/11/17 09:00:32;;;;;;;;;;;;;;;;;;2081398;28;19929;-44
2021/11/17 09:01:33;;;;;;;;;;;;;;;;;;2082075;28;20405;-44
2021/11/17 09:02:34;;;;;;;;;;;;;;;;;;2073960;28;19932;-45
2021/11/17 09:03:35;;;;;;;;;;;;;;;;;;2067058;28;19968;-45
2021/11/17 09:04:36;;;;;;;;;;;;;;;;;;2065677;28;19926;-46
2021/11/17 09:05:37;;;;;;;;;;;;;;;;;;2071051;28;19926;-46
2021/11/17 09:06:38;;;;;;;;;;;;;;;;;;2081762;28;19932;-49
2021/11/17 09:07:39;;;;;;;;;;;;;;;;;;2081987;28;20420;-45
2021/11/17 09:08:40;;;;;;;;;;;;;;;;;;2075407;28;19979;-46
2021/11/17 09:09:41;;;;;;;;;;;;;;;;;;2073753;28;19989;-46
2021/11/17 09:10:42;;;;;;;;;;;;;;;;;;2073633;28;19932;-46
2021/11/17 09:11:43;;;;;;;;;;;;;;;;;;2071480;28;19932;-47
2021/11/17 09:12:43;;;;;;;;;;;;;;;;;;2073900;28;19932;-46
2021/11/17 09:13:45;;;;;;;;;;;;;;;;;;2073388;28;19926;-51
2021/11/17 09:14:45;;;;;;;;;;;;;;;;;;2075323;28;20020;-44
2021/11/17 09:15:46;;;;;;;;;;;;;;;;;;2073736;28;20436;-43
2021/11/17 09:16:48;;;;;;;;;;;;;;;;;;2073033;28;19925;-44
2021/11/17 09:17:50;;;;;;;;;;;;;;;;;;2076347;28;19960;-43
2021/11/17 09:18:53;;;;;;;;;;;;;;;;;;2081982;28;20336;-44
2021/11/17 09:19:53;;;;;;;;;;;;;;;;;;2078556;28;19925;-46
2021/11/17 09:20:54;;;;;;;;;;;;;;;;;;2076038;28;19926;-43
2021/11/17 09:21:55;;;;;;;;;;;;;;;;;;2073529;28;19929;-43